Time;durP1;ratioP1;P1;durP2;ratioP2;P2;SDS_P1;SDS_P2;PMS_P1;PMS_P2;Temp;Humidity;BMP_temperature;BMP_pressure;BME280_temperature;BME280_humidity;BME280_pressure;Samples;Min_cycle;Max_cycle;Signal;HPM_P1;HPM_P2
2022/03/30 00:01:31;;;;;;;23.55;8.40;;;;;;;7.13;73.77;96503.16;4985640;28;20058;-71
2022/03/30 00:03:59;;;;;;;19.13;7.85;;;;;;;7.02;74.01;96495.81;4985642;28;20510;-71
2022/03/30 00:06:26;;;;;;;22.63;6.93;;;;;;;6.50;74.40;96424.72;4983911;28;20490;-72
2022/03/30 00:08:52;;;;;;;17.30;7.68;;;;;;;7.04;73.89;96497.09;4985567;28;20061;-60
2022/03/30 00:11:19;;;;;;;18.70;7.90;;;;;;;6.53;75.77;96490.00;4985330;28;20050;-57
2022/03/30 00:13:46;;;;;;;15.82;8.23;;;;;;;6.26;75.46;96408.44;4985230;28;20057;-73
2022/03/30 00:16:13;;;;;;;20.77;7.45;;;;;;;6.43;75.65;96452.06;4985864;28;20050;-61
2022/03/30 00:18:39;;;;;;;18.23;6.65;;;;;;;6.23;75.73;96414.66;4985653;28;20050;-73
2022/03/30 00:21:06;;;;;;;11.52;6.15;;;;;;;6.78;75.79;96485.88;4985524;28;20058;-58
2022/03/30 00:23:33;;;;;;;19.13;8.13;;;;;;;6.52;76.44;96449.91;4985031;28;20137;-60
2022/03/30 00:26:00;;;;;;;19.17;7.57;;;;;;;6.76;76.53;96479.94;4985064;28;20500;-72
2022/03/30 00:28:28;;;;;;;20.52;7.80;;;;;;;6.25;75.63;96434.34;4985326;28;20061;-72
2022/03/30 00:30:57;;;;;;;18.00;7.20;;;;;;;6.60;75.99;96483.88;4984917;28;20054;-60
2022/03/30 00:33:25;;;;;;;18.33;7.38;;;;;;;6.66;75.52;96482.44;4983861;28;20054;-70
2022/03/30 00:35:52;;;;;;;17.83;7.57;;;;;;;6.66;75.09;96493.44;4983522;28;20058;-61
2022/03/30 00:38:18;;;;;;;18.67;8.13;;;;;;;6.39;75.67;96455.88;4983385;28;20062;-70
2022/03/30 00:40:45;;;;;;;24.42;7.95;;;;;;;6.10;77.50;96422.22;4985338;28;20061;-58
2022/03/30 00:43:12;;;;;;;26.30;9.13;;;;;;;6.19;78.31;96446.78;4985657;28;20050;-71
2022/03/30 00:45:39;;;;;;;27.05;8.13;;;;;;;6.34;78.59;96465.19;4984558;28;20050;-72
2022/03/30 00:48:07;;;;;;;20.00;7.28;;;;;;;6.44;78.24;96475.66;4985078;28;20449;-72
2022/03/30 00:50:33;;;;;;;25.42;8.40;;;;;;;6.52;78.05;96477.41;4999667;28;20054;-58
2022/03/30 00:53:00;;;;;;;21.27;8.27;;;;;;;6.07;77.87;96405.63;5003075;28;20549;-72
2022/03/30 00:55:27;;;;;;;22.10;8.57;;;;;;;6.55;78.33;96473.97;5004542;28;20056;-71
2022/03/30 00:57:55;;;;;;;37.90;10.02;;;;;;;6.45;77.38;96470.97;5004476;28;20060;-71
2022/03/30 01:00:22;;;;;;;24.83;10.75;;;;;;;6.50;77.50;96468.72;5004114;28;20060;-58
2022/03/30 01:02:50;;;;;;;20.23;8.52;;;;;;;6.50;77.17;96457.72;5004285;28;20064;-61
2022/03/30 01:05:17;;;;;;;22.25;8.02;;;;;;;6.56;77.26;96461.78;5003909;28;20050;-72
2022/03/30 01:07:44;;;;;;;24.77;8.50;;;;;;;6.60;75.95;96462.69;5004378;28;20081;-59
2022/03/30 01:10:13;;;;;;;18.35;7.38;;;;;;;6.56;76.62;96461.78;5003746;28;20448;-60
2022/03/30 01:12:40;;;;;;;23.00;8.52;;;;;;;6.44;76.39;96459.16;5004728;28;20416;-58
2022/03/30 01:15:09;;;;;;;21.08;8.80;;;;;;;5.94;78.89;96467.38;5004056;28;20050;-70
2022/03/30 01:17:37;;;;;;;26.33;8.48;;;;;;;5.83;80.68;96460.81;5004538;28;20061;-71
2022/03/30 01:20:08;;;;;;;18.08;8.30;;;;;;;5.87;80.83;96456.19;5004243;28;20054;-60
2022/03/30 01:22:35;;;;;;;27.27;8.48;;;;;;;5.90;80.69;96455.47;5003838;28;20054;-70
2022/03/30 01:25:03;;;;;;;33.67;9.10;;;;;;;5.63;80.15;96417.84;4992097;28;20592;-57
2022/03/30 01:27:30;;;;;;;25.42;8.48;;;;;;;5.91;80.85;96463.34;5002787;28;20432;-70
2022/03/30 01:32:43;;;;;;;19.00;7.30;;;;;;;5.97;80.08;96444.66;5004420;28;20049;-57
2022/03/30 01:35:10;;;;;;;19.08;8.32;;;;;;;5.99;79.41;96442.38;5003653;28;20057;-60
2022/03/30 01:37:38;;;;;;;24.67;10.02;;;;;;;5.68;78.90;96414.84;5003732;28;20116;-72
2022/03/30 01:40:06;;;;;;;18.35;8.07;;;;;;;5.94;78.80;96443.41;5002512;28;20058;-60
2022/03/30 01:42:33;;;;;;;20.45;9.70;;;;;;;5.89;79.55;96448.38;5002649;28;20123;-72
2022/03/30 01:45:00;;;;;;;17.08;8.48;;;;;;;5.18;79.04;96340.56;5003949;28;20050;-70
2022/03/30 01:47:27;;;;;;;15.52;8.60;;;;;;;5.96;78.57;96454.03;5002391;28;20432;-57
2022/03/30 01:49:54;;;;;;;25.08;8.15;;;;;;;5.92;78.78;96453.16;5003274;28;20073;-57
2022/03/30 01:52:20;;;;;;;23.23;8.00;;;;;;;5.92;79.43;96464.16;5003879;28;20062;-61
2022/03/30 01:54:48;;;;;;;20.52;8.02;;;;;;;5.85;80.42;96463.97;5002043;28;20556;-58
2022/03/30 01:57:15;;;;;;;17.23;8.10;;;;;;;5.82;80.95;96459.19;5002335;28;20057;-70
2022/03/30 01:59:43;;;;;;;17.92;7.38;;;;;;;5.37;81.05;96399.16;5003676;28;20050;-57
2022/03/30 02:02:11;;;;;;;16.58;7.15;;;;;;;5.76;81.56;96455.09;5004110;28;20060;-71
2022/03/30 02:04:39;;;;;;;25.65;8.25;;;;;;;5.18;79.72;96352.38;5001791;28;20046;-57
2022/03/30 02:07:10;;;;;;;24.45;10.43;;;;;;;5.84;79.43;96462.38;5003572;28;20050;-57
2022/03/30 02:09:38;;;;;;;23.50;10.25;;;;;;;5.69;79.95;96460.41;5003597;28;20054;-58
2022/03/30 02:12:06;;;;;;;22.52;9.60;;;;;;;5.64;80.51;96460.66;5003309;28;20064;-57
2022/03/30 02:14:33;;;;;;;23.25;9.10;;;;;;;5.58;81.62;96453.84;5001915;28;20525;-57
2022/03/30 02:17:01;;;;;;;23.00;9.43;;;;;;;5.62;82.40;96449.22;5002083;28;20060;-72
2022/03/30 02:19:28;;;;;;;27.42;10.50;;;;;;;5.27;81.37;96372.22;5003600;28;20057;-71
2022/03/30 02:21:55;;;;;;;25.88;11.10;;;;;;;5.75;80.69;96437.00;5003560;28;20072;-70
2022/03/30 02:24:22;;;;;;;18.25;9.98;;;;;;;5.06;81.20;96348.91;5003634;28;20776;-72
2022/03/30 02:26:49;;;;;;;29.50;10.27;;;;;;;5.25;81.28;96398.44;5002938;28;20058;-73
2022/03/30 02:29:16;;;;;;;114.72;59.28;;;;;;;5.67;80.89;96468.19;5001599;28;20061;-59
2022/03/30 02:31:44;;;;;;;57.83;31.77;;;;;;;5.67;80.45;96468.19;5001832;28;21500;-57
2022/03/30 02:34:12;;;;;;;37.58;15.82;;;;;;;5.52;80.71;96471.72;5005964;28;20054;-72
2022/03/30 02:36:39;;;;;;;26.95;11.07;;;;;;;5.50;81.04;96468.53;5005484;28;20053;-72
2022/03/30 02:39:06;;;;;;;31.58;11.35;;;;;;;5.53;81.57;96473.31;5007412;28;20049;-72
2022/03/30 02:41:34;;;;;;;27.17;10.43;;;;;;;5.47;81.74;96469.25;5007073;28;20448;-71
2022/03/30 02:44:00;;;;;;;28.60;9.30;;;;;;;5.50;81.77;96468.53;5007005;28;20072;-58
2022/03/30 02:46:27;;;;;;;20.48;8.75;;;;;;;4.93;81.42;96377.53;5006881;28;20064;-70
2022/03/30 02:48:54;;;;;;;16.88;8.57;;;;;;;5.42;81.65;96455.75;5004435;28;20057;-72
2022/03/30 02:51:21;;;;;;;18.70;8.45;;;;;;;5.53;82.05;96473.31;4987431;28;20060;-58
2022/03/30 02:53:47;;;;;;;21.25;9.10;;;;;;;5.48;82.22;96465.34;4985941;28;20461;-72
2022/03/30 02:56:15;;;;;;;19.25;9.05;;;;;;;5.38;82.27;96455.66;4987226;28;20519;-72
2022/03/30 02:58:41;;;;;;;24.50;8.27;;;;;;;2.72;81.80;96035.00;4987514;28;20062;-58
2022/03/30 03:01:08;;;;;;;23.38;8.88;;;;;;;5.18;81.94;96440.22;4986864;28;20061;-71
2022/03/30 03:03:35;;;;;;;27.02;8.68;;;;;;;5.52;81.56;96460.72;4985719;28;20078;-57
2022/03/30 03:06:02;;;;;;;25.17;9.82;;;;;;;5.45;81.53;96472.34;4986995;28;20128;-73
2022/03/30 03:08:29;;;;;;;17.02;8.82;;;;;;;5.45;81.32;96463.28;4986917;28;20046;-58
2022/03/30 03:10:56;;;;;;;26.95;8.95;;;;;;;5.45;81.41;96477.03;4986846;28;20543;-58
2022/03/30 03:13:23;;;;;;;22.55;9.18;;;;;;;5.42;82.11;96462.03;4985650;28;20057;-71
2022/03/30 03:15:50;;;;;;;21.48;9.98;;;;;;;5.18;82.27;96407.25;4985443;28;20622;-57
2022/03/30 03:18:18;;;;;;;25.92;9.75;;;;;;;5.42;81.85;96455.75;4986769;28;20134;-73
2022/03/30 03:20:47;;;;;;;21.15;8.70;;;;;;;5.31;81.83;96443.69;4986702;28;20378;-71
2022/03/30 03:23:15;;;;;;;30.30;13.63;;;;;;;5.31;82.00;96449.19;4986678;28;20472;-57
2022/03/30 03:25:42;;;;;;;28.63;9.23;;;;;;;4.41;80.24;96383.91;4986595;28;20060;-61
2022/03/30 03:28:10;;;;;;;29.50;12.27;;;;;;;5.04;80.82;96477.44;4986593;28;20054;-72
2022/03/30 03:30:38;;;;;;;27.25;13.20;;;;;;;5.11;79.60;96477.63;4984751;28;20505;-60
2022/03/30 03:33:06;;;;;;;26.30;11.68;;;;;;;4.98;79.81;96484.31;4986960;28;20046;-57
2022/03/30 03:35:34;;;;;;;21.05;9.77;;;;;;;4.26;80.63;96398.34;4985038;28;20481;-58
2022/03/30 03:38:01;;;;;;;19.67;8.55;;;;;;;4.74;81.78;96484.38;4984820;28;20057;-72
2022/03/30 03:40:30;;;;;;;18.02;8.27;;;;;;;4.66;83.36;96494.34;4986051;28;20601;-72
2022/03/30 03:42:58;;;;;;;24.95;9.52;;;;;;;4.62;85.44;96488.75;4984654;28;20585;-57
2022/03/30 03:45:25;;;;;;;20.83;8.52;;;;;;;4.68;86.49;96496.75;4985484;28;20244;-58
2022/03/30 03:47:52;;;;;;;31.58;10.23;;;;;;;4.48;86.66;96460.09;4986738;28;20061;-58
2022/03/30 03:50:20;;;;;;;35.85;16.65;;;;;;;4.79;86.29;96489.63;4999125;28;20057;-58
2022/03/30 03:52:48;;;;;;;51.28;20.58;;;;;;;4.88;85.79;96496.56;5005986;28;20050;-70
2022/03/30 03:55:19;;;;;;;36.50;16.00;;;;;;;4.91;85.19;96489.59;5006055;28;20054;-59
2022/03/30 03:57:46;;;;;;;34.28;14.00;;;;;;;4.77;85.44;96472.72;5006148;28;20049;-59
2022/03/30 04:00:13;;;;;;;28.63;14.63;;;;;;;4.02;85.07;96365.47;5005683;28;20584;-71
2022/03/30 04:02:41;;;;;;;32.38;13.38;;;;;;;4.82;84.30;96484.22;5003925;28;20065;-69
2022/03/30 04:05:09;;;;;;;39.15;14.68;;;;;;;4.29;84.45;96391.34;5003542;28;20473;-73
2022/03/30 04:07:38;;;;;;;35.80;14.43;;;;;;;4.71;85.79;96480.38;5005572;28;20151;-60
2022/03/30 04:10:09;;;;;;;29.45;10.75;;;;;;;4.75;84.74;96485.97;5003407;28;20061;-72
2022/03/30 04:12:38;;;;;;;27.75;10.73;;;;;;;4.68;85.25;96461.09;5003765;28;20556;-73
2022/03/30 04:15:06;;;;;;;27.27;12.05;;;;;;;4.54;85.03;96423.84;5005169;28;20131;-60
2022/03/30 04:17:33;;;;;;;28.10;11.45;;;;;;;5.03;84.63;96478.56;4993949;28;20065;-72
2022/03/30 04:20:01;;;;;;;28.70;12.23;;;;;;;5.04;83.85;96483.72;5004113;28;20066;-72
2022/03/30 04:22:28;;;;;;;27.52;11.85;;;;;;;4.96;83.75;96481.13;5005021;28;20432;-72
2022/03/30 04:24:55;;;;;;;34.28;11.70;;;;;;;4.91;83.39;96484.09;5005092;28;20060;-58
2022/03/30 04:27:21;;;;;;;35.67;12.13;;;;;;;5.02;82.78;96496.19;5004891;28;20054;-73
2022/03/30 04:29:48;;;;;;;30.52;12.65;;;;;;;5.00;82.56;96509.44;5004942;28;20058;-61
2022/03/30 04:32:15;;;;;;;32.85;13.63;;;;;;;5.04;81.66;96499.38;5004593;28;20049;-72
2022/03/30 04:34:42;;;;;;;26.35;11.27;;;;;;;5.06;80.45;96494.34;5004853;28;20053;-72
2022/03/30 04:37:09;;;;;;;23.20;10.98;;;;;;;5.13;79.17;96497.28;5004596;28;20081;-72
2022/03/30 04:39:35;;;;;;;25.27;11.07;;;;;;;4.71;79.94;96454.91;5004597;28;20511;-58
2022/03/30 04:42:03;;;;;;;25.40;11.55;;;;;;;4.25;83.00;96494.63;5004938;28;20493;-58
2022/03/30 04:44:29;;;;;;;31.08;11.80;;;;;;;4.18;84.89;96492.44;5004443;28;20493;-77
2022/03/30 04:46:56;;;;;;;34.90;11.65;;;;;;;4.59;83.74;96486.69;5004988;28;20052;-77
2022/03/30 04:49:23;;;;;;;27.23;12.63;;;;;;;4.78;82.56;96507.22;4999810;28;20054;-74
2022/03/30 04:51:50;;;;;;;32.92;13.98;;;;;;;4.89;83.20;96492.69;4999314;28;20061;-78
2022/03/30 04:54:17;;;;;;;42.03;18.27;;;;;;;4.53;84.18;96452.44;4985005;28;20535;-77
2022/03/30 04:56:45;;;;;;;39.47;20.88;;;;;;;4.48;84.00;96414.28;4987084;28;20057;-62
2022/03/30 04:59:12;;;;;;;33.90;16.42;;;;;;;5.15;84.15;96473.03;4983355;28;20050;-58
2022/03/30 05:01:39;;;;;;;30.23;14.13;;;;;;;4.93;84.06;96413.22;4984861;28;20478;-58
2022/03/30 05:04:07;;;;;;;41.22;16.88;;;;;;;5.50;82.93;96488.53;4984585;28;20527;-58
2022/03/30 05:06:34;;;;;;;32.53;14.98;;;;;;;5.63;82.55;96481.03;4984743;28;20572;-59
2022/03/30 05:09:00;;;;;;;32.58;14.90;;;;;;;5.70;82.12;96456.50;4983674;28;20054;-72
2022/03/30 05:11:27;;;;;;;30.73;13.25;;;;;;;5.62;81.00;96410.75;4983078;28;20047;-72
2022/03/30 05:13:54;;;;;;;26.88;13.80;;;;;;;6.19;80.77;96474.28;4985048;28;20054;-59
2022/03/30 05:16:20;;;;;;;33.22;15.50;;;;;;;6.41;79.33;96475.56;4984754;28;20063;-60
2022/03/30 05:18:47;;;;;;;29.45;15.50;;;;;;;6.55;78.96;96498.72;4983468;28;20058;-72
2022/03/30 05:21:14;;;;;;;100.03;22.95;;;;;;;6.76;77.50;96482.69;4984886;28;20046;-59
2022/03/30 05:23:41;;;;;;;39.80;18.42;;;;;;;6.77;76.26;96464.22;4984478;28;20054;-59
2022/03/30 05:26:07;;;;;;;35.72;17.90;;;;;;;6.21;75.33;96356.50;4983282;28;20062;-69
2022/03/30 05:28:38;;;;;;;35.70;16.90;;;;;;;7.11;75.19;96488.19;4984597;28;20068;-71
2022/03/30 05:31:06;;;;;;;30.17;15.63;;;;;;;7.08;73.55;96440.13;4983908;28;20109;-60
2022/03/30 05:33:33;;;;;;;30.33;14.43;;;;;;;7.07;73.22;96433.03;4984254;28;20141;-71
2022/03/30 05:36:00;;;;;;;41.42;14.55;;;;;;;7.65;71.79;96448.31;4984237;28;20516;-72
2022/03/30 05:38:26;;;;;;;39.92;15.90;;;;;;;8.01;71.01;96490.31;4985159;28;20712;-72
2022/03/30 05:40:54;;;;;;;33.03;15.63;;;;;;;8.12;70.96;96494.06;4984478;28;20050;-72
2022/03/30 05:43:21;;;;;;;34.40;15.77;;;;;;;8.26;70.11;96495.13;4984797;28;20050;-71
2022/03/30 05:45:48;;;;;;;37.35;15.40;;;;;;;8.39;69.34;96498.50;4984393;28;20057;-71
2022/03/30 05:48:17;;;;;;;35.67;16.77;;;;;;;8.63;68.65;96498.13;4985266;28;20068;-72
2022/03/30 05:50:45;;;;;;;35.00;15.00;;;;;;;8.70;68.47;96498.19;4998642;28;20058;-61
2022/03/30 05:53:14;;;;;;;37.35;16.98;;;;;;;8.80;68.87;96492.84;4991705;28;20089;-59
2022/03/30 05:55:44;;;;;;;28.55;15.15;;;;;;;8.77;68.83;96465.19;4994747;28;20050;-64
2022/03/30 05:58:12;;;;;;;25.38;12.93;;;;;;;8.39;67.94;96388.13;4995838;28;20126;-69
2022/03/30 06:00:39;;;;;;;32.25;13.93;;;;;;;8.73;67.85;96433.94;4983290;28;20048;-59
2022/03/30 06:03:06;;;;;;;27.98;14.52;;;;;;;8.89;67.23;96418.81;4995218;28;20506;-60
2022/03/30 06:05:33;;;;;;;42.58;17.67;;;;;;;9.58;66.67;96489.13;4991446;28;20081;-64
2022/03/30 06:07:59;;;;;;;43.72;17.80;;;;;;;9.83;65.92;96495.75;4992773;28;20402;-65
2022/03/30 06:10:27;;;;;;;41.97;21.20;;;;;;;9.93;65.35;96506.13;5000083;28;20050;-58
2022/03/30 06:12:55;;;;;;;42.85;20.63;;;;;;;9.73;63.72;96430.06;4997228;28;20050;-58
2022/03/30 06:15:23;;;;;;;39.30;18.65;;;;;;;9.79;63.70;96414.72;5006659;28;20080;-62
2022/03/30 06:17:54;;;;;;;39.88;19.13;;;;;;;10.46;62.80;96479.78;4988651;28;20062;-59
2022/03/30 06:20:24;;;;;;;37.65;20.08;;;;;;;10.71;62.52;96468.91;4997227;28;20046;-60
2022/03/30 06:22:52;;;;;;;44.83;20.67;;;;;;;10.53;63.98;96463.22;5000483;28;20057;-70
2022/03/30 06:25:25;;;;;;;57.40;26.42;;;;;;;10.28;65.79;96442.88;4988038;28;20525;-59
2022/03/30 06:27:53;;;;;;;46.33;18.92;;;;;;;9.70;65.68;96330.47;5003395;28;20132;-58
2022/03/30 06:30:20;;;;;;;36.25;15.90;;;;;;;9.66;65.83;96315.84;4998340;28;20488;-57
2022/03/30 06:32:49;;;;;;;40.30;15.88;;;;;;;10.96;65.21;96460.75;4993935;28;20062;-68
2022/03/30 06:35:20;;;;;;;31.40;15.13;;;;;;;11.28;64.29;96464.50;4995759;28;20050;-59
2022/03/30 06:37:47;;;;;;;28.35;15.95;;;;;;;9.45;65.86;96236.28;5005201;28;20512;-60
2022/03/30 06:40:15;;;;;;;31.05;13.98;;;;;;;11.30;63.91;96457.38;4996666;28;20050;-60
2022/03/30 06:42:44;;;;;;;27.95;12.70;;;;;;;11.12;64.13;96433.53;4993225;28;20061;-57
2022/03/30 06:45:11;;;;;;;27.98;13.07;;;;;;;11.44;64.00;96457.44;5000228;28;20516;-71
2022/03/30 06:47:39;;;;;;;25.52;12.93;;;;;;;11.50;62.33;96410.69;4996294;28;20496;-73
2022/03/30 06:50:07;;;;;;;24.73;12.35;;;;;;;12.12;60.08;96478.69;4996827;28;20061;-61
2022/03/30 06:52:35;;;;;;;21.38;11.60;;;;;;;12.12;59.41;96471.13;4991774;28;20054;-65
2022/03/30 06:55:06;;;;;;;34.90;11.98;;;;;;;11.52;60.34;96425.75;4997635;28;20057;-56
2022/03/30 06:57:33;;;;;;;21.40;11.30;;;;;;;11.60;59.96;96470.97;4992298;28;20050;-68
2022/03/30 07:00:00;;;;;;;21.23;12.50;;;;;;;11.77;60.34;96471.06;5004321;28;20046;-69
2022/03/30 07:02:27;;;;;;;27.20;14.63;;;;;;;12.19;59.04;96475.91;5005437;28;20089;-65
2022/03/30 07:04:53;;;;;;;32.40;16.25;;;;;;;12.06;56.72;96405.31;4994124;28;20465;-58
2022/03/30 07:10:16;;;;;;;48.05;25.75;;;;;;;12.95;54.72;96485.44;4994409;28;20049;-59
2022/03/30 07:12:47;;;;;;;92.10;47.42;;;;;;;12.89;54.79;96487.06;5006052;28;20567;-58
2022/03/30 07:15:18;;;;;;;68.80;34.80;;;;;;;12.71;55.06;96452.13;5006018;28;20061;-57
2022/03/30 07:17:51;;;;;;;49.72;25.15;;;;;;;12.84;53.54;96431.84;4988306;28;20474;-71
2022/03/30 07:20:20;;;;;;;44.95;25.02;;;;;;;11.79;52.15;96196.00;4985788;28;20046;-69
2022/03/30 07:22:48;;;;;;;40.80;23.63;;;;;;;13.89;51.24;96471.66;4987176;28;20049;-58
2022/03/30 07:25:17;;;;;;;43.58;22.30;;;;;;;14.14;49.96;96483.47;4988068;28;20056;-66
2022/03/30 07:27:48;;;;;;;35.33;20.60;;;;;;;14.04;50.22;96451.69;5017158;28;20493;-59
2022/03/30 07:30:16;;;;;;;36.70;19.73;;;;;;;11.77;50.23;96142.88;5003032;28;20060;-68
2022/03/30 07:32:45;;;;;;;31.20;16.50;;;;;;;14.14;49.97;96483.47;4991828;28;20046;-57
2022/03/30 07:35:19;;;;;;;28.05;14.20;;;;;;;14.42;48.59;96472.16;5003389;28;20050;-71
2022/03/30 07:37:46;;;;;;;22.65;12.48;;;;;;;14.58;47.12;96447.34;4986841;28;20074;-61
2022/03/30 07:40:16;;;;;;;23.10;14.23;;;;;;;15.03;47.48;96474.03;4986557;28;20061;-68
2022/03/30 07:42:44;;;;;;;29.13;14.40;;;;;;;14.83;47.38;96486.97;4989249;28;20116;-58
2022/03/30 07:45:12;;;;;;;31.08;13.18;;;;;;;14.84;47.47;96480.19;5006179;28;20050;-69
2022/03/30 07:47:39;;;;;;;19.52;11.70;;;;;;;14.33;47.19;96407.75;4992671;28;20536;-60
2022/03/30 07:50:07;;;;;;;24.90;12.82;;;;;;;14.24;46.79;96393.47;4988901;28;20090;-60
2022/03/30 07:52:35;;;;;;;26.90;12.00;;;;;;;14.36;46.53;96348.41;5003544;28;20046;-67
2022/03/30 07:55:02;;;;;;;22.17;12.15;;;;;;;15.18;45.50;96465.13;5002700;28;20058;-65
2022/03/30 07:57:29;;;;;;;20.90;11.02;;;;;;;15.51;45.76;96483.13;4986746;28;20081;-68
2022/03/30 08:00:01;;;;;;;16.42;10.70;;;;;;;15.88;45.16;96485.88;4997900;28;20050;-57
2022/03/30 08:02:28;;;;;;;20.75;10.85;;;;;;;15.59;44.65;96442.75;4987475;28;20057;-69
2022/03/30 08:04:55;;;;;;;18.75;9.55;;;;;;;15.61;44.79;96471.06;4992910;28;20056;-69
2022/03/30 08:07:29;;;;;;;16.40;10.82;;;;;;;15.25;44.66;96400.09;4999894;28;20065;-68
2022/03/30 08:09:57;;;;;;;21.85;10.93;;;;;;;16.05;43.92;96465.31;4997271;28;20461;-68
2022/03/30 08:12:25;;;;;;;21.55;10.75;;;;;;;15.60;45.25;96415.63;4999933;28;20050;-65
2022/03/30 08:14:54;;;;;;;19.55;11.85;;;;;;;16.24;44.82;96453.44;5002676;28;20046;-66
2022/03/30 08:17:20;;;;;;;39.97;20.15;;;;;;;16.20;44.20;96401.63;4997461;28;20056;-60
2022/03/30 08:19:47;;;;;;;24.40;11.73;;;;;;;16.64;43.21;96424.47;5000035;28;20058;-67
2022/03/30 08:22:26;;;;;;;25.40;12.60;;;;;;;16.78;42.29;96375.13;5013670;28;20099;-57
2022/03/30 08:24:55;;;;;;;24.17;11.27;;;;;;;17.56;41.57;96459.25;4998127;28;20111;-59
2022/03/30 08:27:25;;;;;;;22.27;11.48;;;;;;;17.82;41.27;96455.50;4996945;28;20046;-62
2022/03/30 08:29:53;;;;;;;20.35;11.38;;;;;;;17.84;40.36;96417.44;4996958;28;20555;-69
2022/03/30 08:32:21;;;;;;;22.80;13.00;;;;;;;18.16;40.26;96441.97;4991464;28;20064;-68
2022/03/30 08:34:50;;;;;;;20.08;11.35;;;;;;;17.88;40.35;96370.50;4984778;28;20057;-61
2022/03/30 08:37:17;;;;;;;18.83;10.65;;;;;;;17.97;39.85;96411.97;4984562;28;20062;-68
2022/03/30 08:39:48;;;;;;;22.17;12.02;;;;;;;18.58;39.80;96441.00;4984733;28;20429;-67
2022/03/30 08:42:17;;;;;;;23.48;11.05;;;;;;;18.67;39.37;96432.75;4984600;28;20084;-62
2022/03/30 08:44:46;;;;;;;28.40;12.88;;;;;;;18.51;39.02;96373.84;4984274;28;20056;-61
2022/03/30 08:47:13;;;;;;;24.13;12.73;;;;;;;19.09;38.73;96431.72;4992528;28;20081;-59
2022/03/30 08:49:42;;;;;;;18.05;11.43;;;;;;;18.96;38.94;96385.94;5002319;28;20401;-61
2022/03/30 08:52:11;;;;;;;25.90;11.32;;;;;;;18.75;38.91;96417.34;4988005;28;20054;-60
2022/03/30 08:54:42;;;;;;;18.98;11.48;;;;;;;19.20;39.26;96429.41;4983959;28;20517;-68
2022/03/30 08:57:09;;;;;;;20.38;12.18;;;;;;;19.23;38.61;96386.41;4984165;28;20058;-68
2022/03/30 08:59:36;;;;;;;20.95;12.88;;;;;;;19.58;37.82;96424.75;4984585;28;20502;-69
2022/03/30 09:02:03;;;;;;;22.10;11.02;;;;;;;19.50;37.55;96414.97;4984426;28;20069;-68
2022/03/30 09:04:30;;;;;;;21.02;11.35;;;;;;;19.38;37.80;96421.31;4984103;28;20437;-68
2022/03/30 09:06:59;;;;;;;15.98;10.48;;;;;;;19.66;37.47;96386.03;4983920;28;20080;-60
2022/03/30 09:09:36;;;;;;;15.63;10.65;;;;;;;19.28;37.64;96408.34;4983544;28;20050;-67
2022/03/30 09:12:10;;;;;;;19.65;11.60;;;;;;;19.26;38.05;96410.00;4986764;28;20058;-62
2022/03/30 09:14:42;;;;;;;19.95;10.88;;;;;;;19.53;37.11;96394.41;4983758;28;20065;-60
2022/03/30 09:17:11;;;;;;;17.85;9.68;;;;;;;19.89;36.75;96393.38;4983976;28;20081;-60
2022/03/30 09:19:39;;;;;;;16.73;10.10;;;;;;;19.92;36.56;96393.25;4983572;28;20060;-68
2022/03/30 09:22:08;;;;;;;16.00;9.68;;;;;;;19.75;37.28;96382.53;4983670;28;20050;-68
2022/03/30 09:24:37;;;;;;;19.40;10.90;;;;;;;20.02;36.73;96382.94;4984295;28;20555;-60
2022/03/30 09:27:06;;;;;;;16.63;10.20;;;;;;;20.39;36.37;96382.22;4982277;28;20060;-63
2022/03/30 09:29:37;;;;;;;21.90;10.50;;;;;;;20.35;36.23;96373.09;4984302;28;20476;-67
2022/03/30 09:32:25;;;;;;;22.10;10.35;;;;;;;20.62;35.57;96356.50;4981915;28;20068;-60
2022/03/30 09:34:54;;;;;;;21.27;10.02;;;;;;;20.63;36.03;96363.72;4983596;28;20065;-60
2022/03/30 09:37:21;;;;;;;17.92;9.52;;;;;;;20.69;35.61;96359.09;4983380;28;20061;-60
2022/03/30 09:39:49;;;;;;;19.33;10.55;;;;;;;20.89;35.86;96356.81;4983664;28;20153;-60
2022/03/30 09:42:18;;;;;;;17.45;10.50;;;;;;;20.90;35.10;96347.09;4983522;28;20054;-67
2022/03/30 09:44:53;;;;;;;18.95;10.13;;;;;;;20.83;35.10;96344.56;4982210;28;20109;-68
2022/03/30 09:47:22;;;;;;;55.20;27.80;;;;;;;20.87;35.88;96336.75;4992171;28;20068;-70
2022/03/30 09:49:54;;;;;;;19.27;10.55;;;;;;;20.72;35.54;96304.72;5002934;28;20056;-68
2022/03/30 09:52:26;;;;;;;18.10;10.07;;;;;;;21.31;35.06;96346.88;4998260;28;20058;-59
2022/03/30 09:54:57;;;;;;;18.98;10.27;;;;;;;21.26;34.33;96305.19;4996062;28;20078;-58
2022/03/30 09:57:29;;;;;;;19.00;11.70;;;;;;;21.37;34.27;96333.00;4981897;28;20147;-60
2022/03/30 10:00:00;;;;;;;21.38;11.50;;;;;;;20.72;35.64;96332.88;4983296;28;20046;-67
2022/03/30 10:02:29;;;;;;;20.20;10.40;;;;;;;19.83;34.69;96088.78;4983652;28;20153;-59
2022/03/30 10:04:57;;;;;;;17.00;10.52;;;;;;;21.56;33.84;96314.97;4983702;28;20054;-59
2022/03/30 10:07:23;;;;;;;17.75;11.45;;;;;;;21.36;34.54;96309.66;4983514;28;20046;-67
2022/03/30 10:09:51;;;;;;;18.95;10.13;;;;;;;21.51;34.29;96307.91;4984241;28;20301;-69
2022/03/30 10:12:19;;;;;;;16.90;9.60;;;;;;;21.50;34.29;96302.72;4995046;28;20060;-61
2022/03/30 10:14:48;;;;;;;21.40;10.73;;;;;;;21.27;34.21;96244.81;4990374;28;20129;-68
2022/03/30 10:17:18;;;;;;;15.85;10.70;;;;;;;21.28;33.91;96189.22;4996565;28;20054;-69
2022/03/30 10:19:46;;;;;;;17.13;9.93;;;;;;;22.33;33.18;96298.63;4995560;28;20042;-62
2022/03/30 10:22:28;;;;;;;16.30;10.05;;;;;;;22.39;32.59;96290.31;4995649;28;20050;-60
2022/03/30 10:25:26;;;;;;;11.80;9.93;;;;;;;20.67;33.20;96201.16;4997002;28;20054;-67
2022/03/30 10:27:56;;;;;;;16.33;10.80;;;;;;;21.02;33.78;96244.94;5002522;28;20063;-61
2022/03/30 10:30:26;;;;;;;17.05;11.27;;;;;;;21.96;33.04;96294.09;5002041;28;20050;-59
2022/03/30 10:32:56;;;;;;;18.42;10.10;;;;;;;22.30;32.46;96296.72;5002333;28;20054;-59
2022/03/30 10:35:37;;;;;;;17.65;10.55;;;;;;;22.38;31.93;96258.47;4999634;28;20057;-63
2022/03/30 10:38:04;;;;;;;20.65;11.30;;;;;;;22.52;31.88;96276.13;4996362;28;20054;-58
2022/03/30 10:40:31;;;;;;;16.38;11.45;;;;;;;22.84;31.00;96276.31;4996301;28;20161;-57
2022/03/30 10:43:01;;;;;;;18.48;11.90;;;;;;;22.74;28.64;96276.78;4992641;28;20142;-58
2022/03/30 10:45:28;;;;;;;17.85;12.65;;;;;;;22.57;28.78;96272.69;4983289;28;20050;-66
2022/03/30 10:48:21;;;;;;;19.90;12.60;;;;;;;22.50;28.51;96273.72;4983101;28;20054;-65
2022/03/30 10:51:10;;;;;;;19.42;12.52;;;;;;;22.35;28.76;96273.53;4983302;28;20064;-65
2022/03/30 10:53:39;;;;;;;24.13;12.55;;;;;;;22.10;28.40;96262.47;4988120;28;20141;-70
2022/03/30 10:56:09;;;;;;;19.75;13.35;;;;;;;22.00;28.15;96252.41;5004746;28;20553;-58
2022/03/30 10:58:37;;;;;;;20.30;12.25;;;;;;;21.88;28.01;96273.03;4999607;28;20137;-61
2022/03/30 11:01:19;;;;;;;16.95;12.20;;;;;;;21.85;28.60;96261.91;4984638;28;20050;-59
2022/03/30 11:03:59;;;;;;;19.08;12.38;;;;;;;21.06;28.73;96149.84;4985391;28;20058;-57
2022/03/30 11:06:27;;;;;;;17.42;11.50;;;;;;;21.88;28.07;96267.41;4985870;28;20311;-56
2022/03/30 11:08:55;;;;;;;15.43;12.02;;;;;;;21.87;28.14;96254.56;4987122;28;20329;-59
2022/03/30 11:11:39;;;;;;;17.45;11.85;;;;;;;22.01;28.31;96248.34;4986417;28;20077;-57
2022/03/30 11:14:36;;;;;;;18.70;11.95;;;;;;;22.25;27.67;96235.28;4996284;28;20085;-66
2022/03/30 11:17:14;;;;;;;16.05;11.25;;;;;;;22.22;27.61;96235.41;4986134;28;20138;-58
2022/03/30 11:19:47;;;;;;;16.88;11.30;;;;;;;22.09;28.09;96232.72;4996668;28;20049;-57
2022/03/30 11:22:15;;;;;;;25.08;13.18;;;;;;;22.15;28.02;96224.41;5005871;28;20144;-68
2022/03/30 11:24:44;;;;;;;14.02;11.95;;;;;;;22.04;27.86;96207.94;5005612;28;20550;-58
2022/03/30 11:27:11;;;;;;;16.75;11.02;;;;;;;22.16;27.73;96220.34;5003473;28;20232;-59
2022/03/30 11:30:12;;;;;;;17.80;11.30;;;;;;;21.77;27.84;96165.53;5004023;28;20050;-58
2022/03/30 11:32:49;;;;;;;19.67;12.52;;;;;;;21.32;28.01;96123.06;4987396;28;20453;-65
2022/03/30 11:35:18;;;;;;;17.17;11.52;;;;;;;20.84;28.13;96019.53;4985968;28;20050;-59
2022/03/30 11:38:25;;;;;;;18.45;11.23;;;;;;;21.97;27.93;96213.84;4987601;28;20061;-60